McCoy, Virginia
Current Conditions -  °F | °C
As of 12:55 PM on Thursday 23 Oct 2014 (Local Time) from KPSK Reporting Station
Broken Clouds Broken Clouds  
Wind Chill: 52°   Ceiling: 2600
Heat Index: 52°   Visibility: 10mi
Dew Point: 41°   Wind: 12mph
Humidity: 65%   Direction: 330°NNW
Pressure: 30.12"   Gusts: 17mph
Location:  37.22°N, 80.6°W
Report Text: KPSK 231655Z AUTO 33010G15KT 310V010 10SM BKN026 11/05 A3012 RMK AO2 T01120049
Loading
Personal Weather Stations






























Interactive Weather Map
Tropical Storm Tracking
New forecast layout! Learn more

10-Day Weather Forecast

Advertisements
Track Severe Weather on mobile